createdAt,value
2023-02-19T00:01:10.249Z,7.57
2023-02-19T00:03:46.215Z,6.63
2023-02-19T00:06:16.593Z,7.43
2023-02-19T00:08:52.088Z,7.70
2023-02-19T00:11:23.302Z,9.77
2023-02-19T00:14:01.947Z,8.50
2023-02-19T00:16:32.027Z,7.33
2023-02-19T00:19:08.089Z,7.33
2023-02-19T00:21:38.007Z,8.27
2023-02-19T00:24:15.015Z,8.27
2023-02-19T00:26:45.816Z,7.03
2023-02-19T00:29:23.003Z,7.20
2023-02-19T00:31:52.052Z,9.20
2023-02-19T00:34:29.310Z,7.73
2023-02-19T00:37:01.026Z,7.00
2023-02-19T00:39:36.575Z,7.57
2023-02-19T00:42:05.575Z,8.57
2023-02-19T00:44:41.270Z,7.83
2023-02-19T00:47:10.019Z,8.27
2023-02-19T00:49:45.269Z,8.27
2023-02-19T00:52:29.034Z,7.47
2023-02-19T00:55:04.555Z,7.83
2023-02-19T00:57:41.265Z,8.67
2023-02-19T01:00:11.080Z,8.10
2023-02-19T01:02:45.980Z,9.13
2023-02-19T01:05:14.388Z,8.23
2023-02-19T01:07:51.971Z,8.67
2023-02-19T01:10:20.646Z,8.77
2023-02-19T01:12:56.045Z,9.07
2023-02-19T01:15:24.794Z,9.50
2023-02-19T01:18:00.118Z,9.57
2023-02-19T01:20:29.000Z,9.87
2023-02-19T01:23:05.011Z,10.53
2023-02-19T01:25:34.012Z,7.97
2023-02-19T01:28:09.073Z,9.93
2023-02-19T01:30:38.091Z,9.60
2023-02-19T01:33:15.001Z,8.63
2023-02-19T01:35:44.113Z,10.70
2023-02-19T01:38:23.050Z,10.60
2023-02-19T01:40:57.553Z,10.33
2023-02-19T01:43:33.307Z,10.70
2023-02-19T01:46:02.344Z,10.93
2023-02-19T01:48:42.129Z,9.23
2023-02-19T01:51:22.926Z,10.50
2023-02-19T01:54:04.387Z,10.27
2023-02-19T01:56:35.886Z,8.63
2023-02-19T01:59:13.067Z,11.20
2023-02-19T02:01:42.820Z,9.67
2023-02-19T02:04:20.348Z,7.33
2023-02-19T02:06:52.919Z,9.77
2023-02-19T02:09:53.452Z,9.13
2023-02-19T02:12:22.098Z,10.87
2023-02-19T02:15:00.431Z,10.10
2023-02-19T02:17:32.882Z,10.40
2023-02-19T02:20:27.116Z,9.20
2023-02-19T02:23:01.614Z,11.23
2023-02-19T02:26:02.096Z,9.63
2023-02-19T02:28:46.979Z,9.97
2023-02-19T02:31:27.306Z,9.13
2023-02-19T02:33:59.661Z,12.07
2023-02-19T02:36:39.167Z,7.53
2023-02-19T02:39:12.879Z,9.00
2023-02-19T02:41:52.379Z,8.37
2023-02-19T02:44:21.193Z,11.57
2023-02-19T02:46:58.182Z,8.00
2023-02-19T02:49:28.645Z,8.37
2023-02-19T02:52:30.383Z,7.03
2023-02-19T02:55:03.916Z,6.10
2023-02-19T02:57:39.456Z,8.43
2023-02-19T03:00:09.576Z,8.00
2023-02-19T03:02:46.263Z,7.63
2023-02-19T03:05:35.341Z,6.77
2023-02-19T03:08:18.133Z,8.07
2023-02-19T03:10:49.341Z,7.93
2023-02-19T03:13:44.163Z,8.37
2023-02-19T03:16:34.238Z,6.43
2023-02-19T03:19:27.468Z,6.93
2023-02-19T03:22:00.724Z,8.80
2023-02-19T03:24:57.100Z,6.73
2023-02-19T03:27:29.535Z,7.40
2023-02-19T03:30:07.228Z,7.53
2023-02-19T03:32:39.009Z,6.93
2023-02-19T03:35:21.413Z,7.20
2023-02-19T03:37:58.996Z,7.33
2023-02-19T03:40:39.206Z,7.97
2023-02-19T03:43:25.142Z,7.90
2023-02-19T03:46:02.060Z,8.37
2023-02-19T03:48:42.431Z,8.67
2023-02-19T03:51:32.635Z,8.67
2023-02-19T03:54:24.082Z,9.30
2023-02-19T03:57:01.182Z,12.23
2023-02-19T03:59:42.169Z,7.50
2023-02-19T04:02:15.408Z,7.33
2023-02-19T04:04:55.254Z,7.23
2023-02-19T04:07:27.160Z,9.47
2023-02-19T04:10:03.253Z,6.17
2023-02-19T04:12:32.962Z,7.77
2023-02-19T04:15:12.387Z,6.57
2023-02-19T04:17:47.981Z,8.33
2023-02-19T04:20:26.250Z,7.97
2023-02-19T04:22:57.402Z,10.63
2023-02-19T04:25:34.222Z,6.33
2023-02-19T04:28:04.050Z,8.23
2023-02-19T04:30:39.353Z,8.23
2023-02-19T04:33:15.269Z,7.30
2023-02-19T04:35:44.145Z,9.17
2023-02-19T04:38:22.131Z,9.17
2023-02-19T04:40:51.776Z,10.03
2023-02-19T04:43:27.326Z,9.30
2023-02-19T04:45:58.288Z,10.93
2023-02-19T04:48:37.893Z,8.20
2023-02-19T04:51:22.807Z,7.87
2023-02-19T04:54:07.503Z,9.60
2023-02-19T04:56:36.183Z,9.77
2023-02-19T04:59:11.207Z,7.70
2023-02-19T05:01:40.250Z,8.47
2023-02-19T05:04:15.231Z,9.00
2023-02-19T05:06:43.836Z,6.90
2023-02-19T05:09:20.508Z,7.77
2023-02-19T05:11:49.718Z,8.10
2023-02-19T05:14:25.265Z,9.23
2023-02-19T05:16:54.406Z,8.27
2023-02-19T05:19:29.187Z,7.13
2023-02-19T05:21:57.813Z,7.13
2023-02-19T05:24:37.361Z,9.57
2023-02-19T05:27:06.732Z,10.63
2023-02-19T05:29:42.224Z,10.30
2023-02-19T05:32:11.258Z,8.87
2023-02-19T05:34:46.292Z,9.17
2023-02-19T05:37:21.335Z,9.30
2023-02-19T05:39:51.944Z,9.50
2023-02-19T05:42:27.237Z,9.23
2023-02-19T05:44:56.117Z,12.30
2023-02-19T05:47:31.624Z,10.00
2023-02-19T05:50:00.479Z,8.63
2023-02-19T05:52:42.263Z,10.57
2023-02-19T05:55:13.016Z,9.50
2023-02-19T05:57:49.612Z,9.67
2023-02-19T06:00:21.599Z,8.50
2023-02-19T06:02:56.580Z,13.07
2023-02-19T06:05:25.520Z,14.73
2023-02-19T06:08:01.262Z,13.20
2023-02-19T06:10:31.393Z,13.07
2023-02-19T06:13:06.366Z,14.30
2023-02-19T06:15:35.241Z,9.63
2023-02-19T06:18:10.592Z,12.30
2023-02-19T06:20:39.353Z,10.03
2023-02-19T06:23:14.587Z,11.20
2023-02-19T06:25:44.809Z,10.73
2023-02-19T06:28:21.262Z,11.23
2023-02-19T06:30:51.523Z,9.40
2023-02-19T06:33:26.607Z,11.80
2023-02-19T06:35:55.548Z,9.27
2023-02-19T06:38:30.348Z,8.90
2023-02-19T06:41:04.177Z,10.37
2023-02-19T06:43:43.294Z,11.70
2023-02-19T06:46:13.196Z,11.87
2023-02-19T06:48:49.621Z,10.70
2023-02-19T06:51:39.436Z,11.40
2023-02-19T06:54:15.284Z,10.97
2023-02-19T06:56:47.219Z,12.47
2023-02-19T06:59:25.601Z,15.80
2023-02-19T07:01:54.111Z,10.07
2023-02-19T07:04:29.674Z,11.73
2023-02-19T07:06:58.478Z,10.27
2023-02-19T07:09:35.631Z,10.40
2023-02-19T07:12:06.129Z,11.17
2023-02-19T07:14:41.291Z,6.77
2023-02-19T07:17:10.874Z,11.67
2023-02-19T07:19:46.632Z,10.60
2023-02-19T07:22:15.282Z,11.40
2023-02-19T07:24:51.398Z,13.00
2023-02-19T07:27:21.992Z,10.97
2023-02-19T07:29:57.398Z,6.73
2023-02-19T07:32:26.747Z,13.57
2023-02-19T07:35:01.715Z,10.57
2023-02-19T07:37:30.264Z,14.87
2023-02-19T07:40:05.561Z,11.07
2023-02-19T07:42:35.521Z,12.03
2023-02-19T07:45:10.402Z,11.40
2023-02-19T07:47:39.354Z,9.77
2023-02-19T07:50:15.339Z,8.33
2023-02-19T07:52:50.604Z,9.97
2023-02-19T07:55:25.332Z,10.60
2023-02-19T07:57:55.570Z,11.40
2023-02-19T08:00:30.324Z,9.70
2023-02-19T08:03:00.899Z,9.47
2023-02-19T08:05:37.692Z,10.67
2023-02-19T08:08:08.985Z,10.63
2023-02-19T08:11:02.441Z,12.73
2023-02-19T08:13:33.404Z,9.10
2023-02-19T08:16:33.206Z,10.80
2023-02-19T08:19:06.163Z,9.17
2023-02-19T08:21:41.676Z,13.70
2023-02-19T08:24:10.925Z,8.37
2023-02-19T08:26:46.377Z,10.73
2023-02-19T08:29:16.597Z,8.77
2023-02-19T08:31:51.729Z,9.87
2023-02-19T08:34:20.294Z,7.57
2023-02-19T08:36:55.631Z,10.43
2023-02-19T08:39:24.197Z,9.67
2023-02-19T08:41:59.796Z,8.50
2023-02-19T08:44:30.034Z,10.87
2023-02-19T08:47:05.560Z,8.67
2023-02-19T08:49:34.108Z,11.10
2023-02-19T08:52:15.429Z,11.73
2023-02-19T08:54:50.581Z,11.20
2023-02-19T08:57:26.477Z,9.67
2023-02-19T08:59:56.962Z,12.07
2023-02-19T09:02:32.981Z,9.47
2023-02-19T09:05:01.478Z,13.40
2023-02-19T09:07:36.813Z,9.00
2023-02-19T09:10:05.978Z,13.17
2023-02-19T09:12:41.741Z,13.37
2023-02-19T09:15:12.253Z,10.47
2023-02-19T09:17:47.530Z,10.73
2023-02-19T09:20:17.754Z,11.33
2023-02-19T09:22:52.451Z,9.83
2023-02-19T09:25:22.742Z,9.13
2023-02-19T09:27:57.784Z,8.83
2023-02-19T09:30:28.296Z,11.70
2023-02-19T09:33:04.742Z,8.80
2023-02-19T09:35:33.387Z,9.07
2023-02-19T09:38:09.745Z,10.10
2023-02-19T09:40:39.171Z,9.03
2023-02-19T09:43:16.439Z,10.83
2023-02-19T09:45:46.738Z,9.13
2023-02-19T09:48:21.518Z,10.03
2023-02-19T09:50:51.273Z,9.73
2023-02-19T09:53:37.758Z,8.47
2023-02-19T09:56:13.099Z,10.77
2023-02-19T09:58:54.762Z,10.07
2023-02-19T10:01:29.778Z,11.70
2023-02-19T10:04:05.783Z,9.17
2023-02-19T10:06:36.468Z,9.00
2023-02-19T10:09:26.517Z,8.23
2023-02-19T10:11:57.347Z,9.30
2023-02-19T10:14:41.487Z,11.67
2023-02-19T10:17:18.768Z,14.30
2023-02-19T10:19:53.598Z,12.13
2023-02-19T10:22:22.479Z,9.70
2023-02-19T10:25:01.552Z,10.47
2023-02-19T10:27:32.355Z,10.73
2023-02-19T10:30:14.553Z,13.40
2023-02-19T10:33:01.392Z,9.17
2023-02-19T10:35:36.487Z,10.77
2023-02-19T10:38:08.626Z,11.03
2023-02-19T10:40:43.850Z,12.07
2023-02-19T10:43:31.528Z,11.50
2023-02-19T10:46:08.873Z,10.80
2023-02-19T10:48:41.458Z,11.10
2023-02-19T10:51:19.785Z,9.53
2023-02-19T10:53:57.139Z,11.33
2023-02-19T10:56:35.562Z,9.70
2023-02-19T10:59:22.708Z,10.10
2023-02-19T11:02:07.709Z,11.77
2023-02-19T11:04:38.616Z,9.40
2023-02-19T11:07:17.588Z,10.47
2023-02-19T11:09:48.688Z,10.17
2023-02-19T11:12:33.575Z,11.37
2023-02-19T11:15:21.102Z,9.60
2023-02-19T11:18:03.826Z,10.90
2023-02-19T11:20:34.644Z,10.97
2023-02-19T11:23:17.720Z,10.40
2023-02-19T11:25:49.055Z,10.30
2023-02-19T11:28:36.885Z,9.27
2023-02-19T11:31:23.981Z,10.27
2023-02-19T11:33:58.055Z,9.83
2023-02-19T11:36:45.602Z,12.33
2023-02-19T11:39:23.281Z,8.47
2023-02-19T11:42:20.881Z,10.03
2023-02-19T11:45:00.633Z,9.50
2023-02-19T11:48:06.968Z,9.07
2023-02-19T11:50:50.343Z,10.00
2023-02-19T11:53:38.601Z,9.80
2023-02-19T11:56:17.984Z,10.60
2023-02-19T11:59:08.628Z,10.03
2023-02-19T12:01:59.767Z,12.23
2023-02-19T12:05:04.638Z,10.37
2023-02-19T12:08:04.790Z,14.77
2023-02-19T12:10:51.882Z,8.90
2023-02-19T12:13:31.394Z,8.90
2023-02-19T12:16:20.593Z,8.23
2023-02-19T12:19:15.365Z,8.73
2023-02-19T12:22:13.648Z,11.40
2023-02-19T12:25:02.877Z,23.37
2023-02-19T12:27:52.573Z,8.07
2023-02-19T12:30:42.414Z,9.20
2023-02-19T12:33:51.601Z,9.10
2023-02-19T12:36:29.246Z,9.93
2023-02-19T12:39:12.669Z,13.57
2023-02-19T12:41:50.705Z,8.97
2023-02-19T12:44:30.885Z,8.00
2023-02-19T12:47:03.368Z,11.97
2023-02-19T12:49:45.177Z,8.30
2023-02-19T12:52:47.858Z,11.37
2023-02-19T12:55:29.620Z,8.63
2023-02-19T12:58:01.467Z,10.63
2023-02-19T13:00:45.628Z,8.83
2023-02-19T13:03:22.226Z,10.43
2023-02-19T13:06:02.899Z,8.87
2023-02-19T13:08:36.584Z,6.20
2023-02-19T13:11:18.712Z,7.93
2023-02-19T13:13:52.391Z,8.40
2023-02-19T13:16:29.721Z,9.60
2023-02-19T13:19:02.138Z,7.20
2023-02-19T13:21:56.703Z,10.73
2023-02-19T13:24:28.788Z,10.63
2023-02-19T13:27:17.672Z,5.60
2023-02-19T13:30:04.521Z,4.73
2023-02-19T13:33:06.727Z,7.70
2023-02-19T13:36:12.714Z,8.57
2023-02-19T13:38:50.795Z,6.90
2023-02-19T13:41:23.276Z,7.07
2023-02-19T13:44:10.924Z,6.47
2023-02-19T13:46:43.153Z,7.07
2023-02-19T13:49:50.935Z,9.77
2023-02-19T13:52:46.711Z,4.33
2023-02-19T13:55:59.214Z,6.23
2023-02-19T13:59:08.051Z,5.53
2023-02-19T14:02:13.935Z,5.60
2023-02-19T14:04:54.996Z,7.00
2023-02-19T14:07:48.912Z,7.90
2023-02-19T14:11:04.685Z,6.90
2023-02-19T14:14:13.749Z,5.70
2023-02-19T14:16:56.387Z,7.23
2023-02-19T14:20:02.761Z,5.53
2023-02-19T14:23:02.260Z,4.50
2023-02-19T14:25:45.038Z,4.83
2023-02-19T14:28:38.616Z,7.63
2023-02-19T14:31:35.878Z,6.57
2023-02-19T14:34:08.180Z,4.43
2023-02-19T14:36:54.764Z,6.33
2023-02-19T14:39:29.102Z,7.90
2023-02-19T14:42:12.152Z,5.50
2023-02-19T14:44:52.289Z,9.47
2023-02-19T14:47:29.985Z,4.03
2023-02-19T14:50:04.640Z,4.90
2023-02-19T14:52:47.020Z,2.83
2023-02-19T14:55:28.743Z,3.60
2023-02-19T14:58:07.559Z,3.33
2023-02-19T15:00:40.811Z,3.10
2023-02-19T15:03:33.778Z,5.57
2023-02-19T15:06:07.041Z,4.77
2023-02-19T15:08:58.204Z,2.40
2023-02-19T15:11:30.103Z,2.70
2023-02-19T15:14:08.817Z,4.03
2023-02-19T15:16:38.611Z,4.43
2023-02-19T15:19:17.413Z,3.23
2023-02-19T15:21:48.479Z,3.13
2023-02-19T15:24:26.082Z,3.50
2023-02-19T15:26:55.983Z,4.47
2023-02-19T15:29:33.854Z,3.57
2023-02-19T15:32:03.385Z,2.67
2023-02-19T15:34:39.785Z,4.20
2023-02-19T15:37:10.710Z,1.90
2023-02-19T15:39:52.035Z,2.87
2023-02-19T15:42:30.308Z,5.27
2023-02-19T15:45:13.079Z,4.50
2023-02-19T15:47:47.066Z,2.77
2023-02-19T15:50:26.167Z,3.20
2023-02-19T15:53:07.262Z,3.50
2023-02-19T15:55:56.088Z,4.13
2023-02-19T15:58:36.803Z,2.73
2023-02-19T16:01:09.920Z,2.83
2023-02-19T16:03:45.842Z,2.63
2023-02-19T16:06:16.317Z,3.57
2023-02-19T16:08:57.197Z,3.20
2023-02-19T16:11:30.884Z,2.43
2023-02-19T16:14:36.970Z,3.60
2023-02-19T16:17:14.254Z,2.67
2023-02-19T16:19:54.747Z,3.40
2023-02-19T16:22:25.968Z,4.33
2023-02-19T16:25:03.139Z,3.53
2023-02-19T16:27:35.888Z,2.67
2023-02-19T16:30:16.157Z,2.83
2023-02-19T16:32:47.215Z,3.93
2023-02-19T16:35:43.133Z,2.50
2023-02-19T16:38:15.200Z,1.93
2023-02-19T16:41:21.182Z,1.87
2023-02-19T16:43:51.089Z,1.80
2023-02-19T16:46:26.881Z,2.77
2023-02-19T16:48:56.437Z,2.87
2023-02-19T16:51:34.818Z,2.77
2023-02-19T16:54:10.729Z,2.23
2023-02-19T16:56:46.131Z,2.77
2023-02-19T16:59:16.297Z,2.37
2023-02-19T17:01:52.150Z,3.67
2023-02-19T17:04:20.665Z,3.30
2023-02-19T17:06:56.185Z,2.37
2023-02-19T17:09:25.166Z,5.13
2023-02-19T17:12:00.185Z,3.60
2023-02-19T17:14:30.374Z,5.20
2023-02-19T17:17:05.557Z,3.03
2023-02-19T17:19:34.652Z,3.50
2023-02-19T17:22:10.862Z,4.33
2023-02-19T17:24:39.382Z,3.93
2023-02-19T17:27:18.202Z,3.37
2023-02-19T17:29:48.248Z,4.93
2023-02-19T17:32:23.276Z,4.53
2023-02-19T17:34:52.823Z,6.27
2023-02-19T17:37:27.862Z,2.80
2023-02-19T17:39:56.818Z,3.30
2023-02-19T17:42:32.885Z,5.77
2023-02-19T17:45:03.137Z,3.13
2023-02-19T17:47:39.279Z,3.70
2023-02-19T17:50:08.904Z,2.87
2023-02-19T17:52:44.179Z,4.83
2023-02-19T17:55:20.066Z,4.87
2023-02-19T17:57:56.259Z,3.27
2023-02-19T18:00:28.462Z,3.07
2023-02-19T18:03:04.155Z,3.70
2023-02-19T18:05:33.044Z,3.47
2023-02-19T18:08:08.206Z,3.27
2023-02-19T18:10:37.852Z,3.20
2023-02-19T18:13:13.287Z,4.97
2023-02-19T18:15:43.233Z,2.47
2023-02-19T18:18:19.209Z,3.30
2023-02-19T18:20:48.060Z,4.10
2023-02-19T18:23:24.222Z,4.37
2023-02-19T18:25:52.766Z,3.23
2023-02-19T18:28:31.222Z,4.53
2023-02-19T18:31:01.249Z,4.67
2023-02-19T18:33:35.987Z,5.43
2023-02-19T18:36:06.952Z,4.17
2023-02-19T18:38:42.239Z,4.43
2023-02-19T18:41:14.185Z,3.53
2023-02-19T18:43:50.016Z,4.67
2023-02-19T18:46:22.904Z,3.40
2023-02-19T18:48:57.960Z,5.57
2023-02-19T18:51:26.602Z,5.20
2023-02-19T18:54:01.923Z,4.10
2023-02-19T18:56:32.869Z,4.20
2023-02-19T18:59:10.924Z,5.27
2023-02-19T19:01:41.549Z,4.93
2023-02-19T19:04:17.213Z,4.03
2023-02-19T19:06:47.199Z,5.60
2023-02-19T19:09:23.177Z,5.10
2023-02-19T19:11:51.943Z,7.10
2023-02-19T19:14:27.016Z,33.20
2023-02-19T19:16:57.728Z,16.03
2023-02-19T19:19:33.017Z,24.90
2023-02-19T19:22:02.937Z,20.53
2023-02-19T19:24:39.958Z,10.40
2023-02-19T19:27:08.969Z,13.17
2023-02-19T19:29:43.964Z,10.80
2023-02-19T19:32:14.248Z,9.17
2023-02-19T19:34:51.260Z,8.23
2023-02-19T19:37:19.783Z,7.60
2023-02-19T19:39:54.976Z,8.47
2023-02-19T19:42:23.500Z,8.77
2023-02-19T19:44:59.053Z,10.40
2023-02-19T19:47:29.508Z,8.27
2023-02-19T19:50:04.991Z,8.23
2023-02-19T19:52:33.504Z,9.00
2023-02-19T19:55:23.245Z,7.17
2023-02-19T19:57:54.519Z,11.17
2023-02-19T20:00:30.971Z,12.60
2023-02-19T20:03:02.273Z,12.33
2023-02-19T20:05:38.037Z,10.70
2023-02-19T20:08:06.996Z,13.33
2023-02-19T20:10:43.426Z,12.40
2023-02-19T20:13:13.112Z,11.00
2023-02-19T20:15:48.052Z,8.90
2023-02-19T20:18:18.198Z,9.93
2023-02-19T20:20:52.961Z,6.70
2023-02-19T20:23:22.800Z,7.33
2023-02-19T20:25:58.042Z,8.27
2023-02-19T20:28:28.329Z,53.63
2023-02-19T20:31:04.125Z,79.70
2023-02-19T20:33:41.413Z,91.10
2023-02-19T20:36:10.509Z,60.73
2023-02-19T20:38:45.009Z,68.83
2023-02-19T20:41:16.595Z,45.90
2023-02-19T20:43:53.455Z,107.30
2023-02-19T20:46:22.253Z,132.23
2023-02-19T20:49:01.485Z,131.07
2023-02-19T20:51:30.098Z,36.60
2023-02-19T20:54:12.130Z,14.67
2023-02-19T20:56:45.698Z,13.80
2023-02-19T20:59:21.406Z,14.30
2023-02-19T21:01:50.135Z,12.63
2023-02-19T21:04:27.106Z,11.70
2023-02-19T21:06:55.716Z,13.00
2023-02-19T21:09:31.071Z,10.83
2023-02-19T21:12:00.000Z,11.60
2023-02-19T21:14:35.105Z,10.83
2023-02-19T21:17:03.971Z,10.97
2023-02-19T21:19:41.437Z,9.17
2023-02-19T21:22:09.969Z,10.13
2023-02-19T21:24:45.414Z,9.63
2023-02-19T21:27:14.083Z,9.20
2023-02-19T21:29:51.290Z,9.73
2023-02-19T21:32:20.253Z,12.57
2023-02-19T21:34:57.631Z,9.77
2023-02-19T21:37:26.091Z,11.03
2023-02-19T21:40:01.387Z,8.83
2023-02-19T21:42:31.237Z,8.63
2023-02-19T21:45:06.082Z,8.00
2023-02-19T21:47:36.186Z,10.97
2023-02-19T21:50:13.388Z,8.60
2023-02-19T21:52:44.347Z,8.50
2023-02-19T21:55:26.403Z,10.07
2023-02-19T21:57:55.544Z,8.37
2023-02-19T22:00:31.099Z,7.80
2023-02-19T22:03:00.107Z,7.97
2023-02-19T22:05:36.134Z,7.90
2023-02-19T22:08:04.659Z,9.63
2023-02-19T22:10:40.192Z,7.57
2023-02-19T22:13:09.778Z,7.73
2023-02-19T22:15:46.111Z,7.47
2023-02-19T22:18:14.763Z,9.53
2023-02-19T22:20:51.410Z,10.43
2023-02-19T22:23:20.326Z,10.20
2023-02-19T22:25:55.419Z,8.90
2023-02-19T22:28:24.028Z,8.27
2023-02-19T22:30:59.115Z,11.90
2023-02-19T22:33:27.873Z,8.43
2023-02-19T22:36:05.290Z,10.67
2023-02-19T22:38:33.931Z,8.40
2023-02-19T22:41:10.434Z,12.07
2023-02-19T22:43:40.370Z,8.23
2023-02-19T22:46:20.201Z,9.30
2023-02-19T22:48:48.978Z,10.03
2023-02-19T22:51:27.118Z,10.23
2023-02-19T22:54:15.192Z,10.17
2023-02-19T22:56:50.483Z,11.30
2023-02-19T22:59:19.727Z,9.90
2023-02-19T23:01:55.477Z,10.90
2023-02-19T23:04:26.454Z,12.40
2023-02-19T23:07:03.541Z,10.70
2023-02-19T23:09:32.443Z,12.67
2023-02-19T23:12:13.719Z,12.27
2023-02-19T23:14:42.711Z,12.33
2023-02-19T23:17:18.487Z,13.03
2023-02-19T23:19:47.856Z,13.70
2023-02-19T23:22:25.553Z,12.60
2023-02-19T23:24:54.120Z,12.67
2023-02-19T23:27:31.504Z,14.00
2023-02-19T23:30:00.037Z,14.10
2023-02-19T23:32:36.488Z,14.13
2023-02-19T23:35:05.272Z,15.10
2023-02-19T23:37:42.473Z,12.83
2023-02-19T23:40:14.108Z,13.87
2023-02-19T23:42:49.213Z,14.83
2023-02-19T23:45:20.589Z,17.67
2023-02-19T23:47:55.513Z,22.37
2023-02-19T23:50:24.517Z,17.90
2023-02-19T23:53:03.482Z,16.30
2023-02-19T23:55:45.197Z,14.50
2023-02-19T23:58:14.576Z,14.60
